sensor_id;sensor_type;location;lat;lon;timestamp;P1;durP1;ratioP1;P2;durP2;ratioP2
2177;SDS011;1095;50.992;6.798;2022-08-20T00:02:13;12.18;;;8.95;;
2177;SDS011;1095;50.992;6.798;2022-08-20T00:04:40;10.52;;;9.07;;
2177;SDS011;1095;50.992;6.798;2022-08-20T00:07:07;12.35;;;9.75;;
2177;SDS011;1095;50.992;6.798;2022-08-20T00:09:35;14.35;;;10.90;;
2177;SDS011;1095;50.992;6.798;2022-08-20T00:12:02;14.00;;;11.05;;
2177;SDS011;1095;50.992;6.798;2022-08-20T00:14:29;14.80;;;11.95;;
2177;SDS011;1095;50.992;6.798;2022-08-20T00:16:55;13.25;;;11.82;;
2177;SDS011;1095;50.992;6.798;2022-08-20T00:19:23;16.80;;;12.20;;
2177;SDS011;1095;50.992;6.798;2022-08-20T00:21:50;13.02;;;10.93;;
2177;SDS011;1095;50.992;6.798;2022-08-20T00:24:16;15.23;;;10.25;;
2177;SDS011;1095;50.992;6.798;2022-08-20T00:26:44;13.50;;;9.60;;
2177;SDS011;1095;50.992;6.798;2022-08-20T00:29:11;10.45;;;9.35;;
2177;SDS011;1095;50.992;6.798;2022-08-20T00:31:38;10.02;;;9.00;;
2177;SDS011;1095;50.992;6.798;2022-08-20T00:34:05;11.55;;;9.80;;
2177;SDS011;1095;50.992;6.798;2022-08-20T00:36:31;10.90;;;9.68;;
2177;SDS011;1095;50.992;6.798;2022-08-20T00:38:58;12.73;;;9.55;;
2177;SDS011;1095;50.992;6.798;2022-08-20T00:41:26;15.88;;;9.98;;
2177;SDS011;1095;50.992;6.798;2022-08-20T00:44:04;14.05;;;10.02;;
2177;SDS011;1095;50.992;6.798;2022-08-20T00:46:35;15.50;;;11.32;;
2177;SDS011;1095;50.992;6.798;2022-08-20T00:49:03;14.90;;;10.38;;
2177;SDS011;1095;50.992;6.798;2022-08-20T00:51:32;13.32;;;11.20;;
2177;SDS011;1095;50.992;6.798;2022-08-20T00:54:03;15.90;;;10.98;;
2177;SDS011;1095;50.992;6.798;2022-08-20T00:56:34;12.98;;;11.10;;
2177;SDS011;1095;50.992;6.798;2022-08-20T00:59:05;14.95;;;10.82;;
2177;SDS011;1095;50.992;6.798;2022-08-20T01:04:02;12.15;;;10.85;;
2177;SDS011;1095;50.992;6.798;2022-08-20T01:06:29;15.52;;;10.68;;
2177;SDS011;1095;50.992;6.798;2022-08-20T01:08:56;15.98;;;10.98;;
2177;SDS011;1095;50.992;6.798;2022-08-20T01:11:26;15.40;;;11.43;;
2177;SDS011;1095;50.992;6.798;2022-08-20T01:13:57;14.10;;;11.15;;
2177;SDS011;1095;50.992;6.798;2022-08-20T01:16:26;17.65;;;11.50;;
2177;SDS011;1095;50.992;6.798;2022-08-20T01:18:57;16.98;;;11.55;;
2177;SDS011;1095;50.992;6.798;2022-08-20T01:21:25;13.13;;;10.48;;
2177;SDS011;1095;50.992;6.798;2022-08-20T01:23:56;15.90;;;10.82;;
2177;SDS011;1095;50.992;6.798;2022-08-20T01:26:29;12.60;;;10.10;;
2177;SDS011;1095;50.992;6.798;2022-08-20T01:29:00;14.40;;;9.43;;
2177;SDS011;1095;50.992;6.798;2022-08-20T01:31:31;11.68;;;9.93;;
2177;SDS011;1095;50.992;6.798;2022-08-20T01:34:00;10.88;;;9.35;;
2177;SDS011;1095;50.992;6.798;2022-08-20T01:36:29;14.80;;;9.05;;
2177;SDS011;1095;50.992;6.798;2022-08-20T01:39:00;12.27;;;9.43;;
2177;SDS011;1095;50.992;6.798;2022-08-20T01:41:35;12.48;;;9.27;;
2177;SDS011;1095;50.992;6.798;2022-08-20T01:44:12;12.13;;;9.68;;
2177;SDS011;1095;50.992;6.798;2022-08-20T01:46:40;10.80;;;8.57;;
2177;SDS011;1095;50.992;6.798;2022-08-20T01:49:10;12.70;;;9.68;;
2177;SDS011;1095;50.992;6.798;2022-08-20T01:51:39;14.75;;;10.27;;
2177;SDS011;1095;50.992;6.798;2022-08-20T01:54:06;13.55;;;10.70;;
2177;SDS011;1095;50.992;6.798;2022-08-20T01:56:36;16.38;;;11.23;;
2177;SDS011;1095;50.992;6.798;2022-08-20T01:59:17;14.20;;;11.02;;
2177;SDS011;1095;50.992;6.798;2022-08-20T02:01:44;13.95;;;11.50;;
2177;SDS011;1095;50.992;6.798;2022-08-20T02:04:10;14.52;;;11.77;;
2177;SDS011;1095;50.992;6.798;2022-08-20T02:06:39;16.63;;;11.95;;
2177;SDS011;1095;50.992;6.798;2022-08-20T02:09:08;14.93;;;11.80;;
2177;SDS011;1095;50.992;6.798;2022-08-20T02:11:37;16.80;;;11.07;;
2177;SDS011;1095;50.992;6.798;2022-08-20T02:14:06;15.52;;;11.70;;
2177;SDS011;1095;50.992;6.798;2022-08-20T02:16:35;14.18;;;11.80;;
2177;SDS011;1095;50.992;6.798;2022-08-20T02:19:05;14.10;;;12.18;;
2177;SDS011;1095;50.992;6.798;2022-08-20T02:21:37;15.10;;;11.40;;
2177;SDS011;1095;50.992;6.798;2022-08-20T02:24:06;13.95;;;11.93;;
2177;SDS011;1095;50.992;6.798;2022-08-20T02:26:33;13.65;;;11.48;;
2177;SDS011;1095;50.992;6.798;2022-08-20T02:29:03;19.85;;;12.43;;
2177;SDS011;1095;50.992;6.798;2022-08-20T02:31:32;14.38;;;11.52;;
2177;SDS011;1095;50.992;6.798;2022-08-20T02:34:00;14.77;;;11.70;;
2177;SDS011;1095;50.992;6.798;2022-08-20T02:36:27;12.75;;;11.13;;
2177;SDS011;1095;50.992;6.798;2022-08-20T02:38:53;16.10;;;12.43;;
2177;SDS011;1095;50.992;6.798;2022-08-20T02:41:20;14.02;;;11.65;;
2177;SDS011;1095;50.992;6.798;2022-08-20T02:43:47;15.65;;;12.00;;
2177;SDS011;1095;50.992;6.798;2022-08-20T02:46:16;14.45;;;11.48;;
2177;SDS011;1095;50.992;6.798;2022-08-20T02:48:43;14.27;;;11.68;;
2177;SDS011;1095;50.992;6.798;2022-08-20T02:51:10;14.75;;;12.07;;
2177;SDS011;1095;50.992;6.798;2022-08-20T02:53:37;15.50;;;11.93;;
2177;SDS011;1095;50.992;6.798;2022-08-20T02:56:07;15.65;;;12.70;;
2177;SDS011;1095;50.992;6.798;2022-08-20T02:58:35;13.90;;;12.27;;
2177;SDS011;1095;50.992;6.798;2022-08-20T03:01:03;15.98;;;12.38;;
2177;SDS011;1095;50.992;6.798;2022-08-20T03:03:33;17.00;;;13.05;;
2177;SDS011;1095;50.992;6.798;2022-08-20T03:06:00;16.83;;;12.02;;
2177;SDS011;1095;50.992;6.798;2022-08-20T03:08:27;16.35;;;13.27;;
2177;SDS011;1095;50.992;6.798;2022-08-20T03:10:54;14.82;;;12.73;;
2177;SDS011;1095;50.992;6.798;2022-08-20T03:13:21;13.95;;;12.48;;
2177;SDS011;1095;50.992;6.798;2022-08-20T03:15:49;17.88;;;12.82;;
2177;SDS011;1095;50.992;6.798;2022-08-20T03:18:18;14.20;;;12.70;;
2177;SDS011;1095;50.992;6.798;2022-08-20T03:20:47;14.75;;;12.45;;
2177;SDS011;1095;50.992;6.798;2022-08-20T03:23:15;17.30;;;14.00;;
2177;SDS011;1095;50.992;6.798;2022-08-20T03:25:43;16.20;;;13.48;;
2177;SDS011;1095;50.992;6.798;2022-08-20T03:28:10;15.13;;;12.63;;
2177;SDS011;1095;50.992;6.798;2022-08-20T03:30:38;13.70;;;12.20;;
2177;SDS011;1095;50.992;6.798;2022-08-20T03:33:05;16.20;;;12.38;;
2177;SDS011;1095;50.992;6.798;2022-08-20T03:35:33;15.13;;;12.55;;
2177;SDS011;1095;50.992;6.798;2022-08-20T03:38:04;13.45;;;11.80;;
2177;SDS011;1095;50.992;6.798;2022-08-20T03:40:32;13.52;;;12.02;;
2177;SDS011;1095;50.992;6.798;2022-08-20T03:43:00;13.38;;;10.98;;
2177;SDS011;1095;50.992;6.798;2022-08-20T03:45:27;15.90;;;11.32;;
2177;SDS011;1095;50.992;6.798;2022-08-20T03:47:56;15.77;;;12.00;;
2177;SDS011;1095;50.992;6.798;2022-08-20T03:50:27;12.00;;;10.75;;
2177;SDS011;1095;50.992;6.798;2022-08-20T03:52:55;14.07;;;10.98;;
2177;SDS011;1095;50.992;6.798;2022-08-20T03:55:25;17.25;;;11.75;;
2177;SDS011;1095;50.992;6.798;2022-08-20T03:57:53;14.00;;;11.25;;
2177;SDS011;1095;50.992;6.798;2022-08-20T04:00:22;12.88;;;11.50;;
2177;SDS011;1095;50.992;6.798;2022-08-20T04:02:57;16.38;;;11.10;;
2177;SDS011;1095;50.992;6.798;2022-08-20T04:05:24;13.43;;;10.75;;
2177;SDS011;1095;50.992;6.798;2022-08-20T04:07:52;13.90;;;10.68;;
2177;SDS011;1095;50.992;6.798;2022-08-20T04:10:19;14.77;;;10.57;;
2177;SDS011;1095;50.992;6.798;2022-08-20T04:12:47;16.45;;;11.32;;
2177;SDS011;1095;50.992;6.798;2022-08-20T04:15:15;14.75;;;11.13;;
2177;SDS011;1095;50.992;6.798;2022-08-20T04:17:45;15.65;;;11.38;;
2177;SDS011;1095;50.992;6.798;2022-08-20T04:20:14;13.55;;;12.15;;
2177;SDS011;1095;50.992;6.798;2022-08-20T04:22:47;13.73;;;10.80;;
2177;SDS011;1095;50.992;6.798;2022-08-20T04:25:14;15.30;;;10.75;;
2177;SDS011;1095;50.992;6.798;2022-08-20T04:27:40;14.98;;;10.32;;
2177;SDS011;1095;50.992;6.798;2022-08-20T04:30:10;14.70;;;10.60;;
2177;SDS011;1095;50.992;6.798;2022-08-20T04:32:39;13.93;;;10.00;;
2177;SDS011;1095;50.992;6.798;2022-08-20T04:35:06;12.88;;;10.50;;
2177;SDS011;1095;50.992;6.798;2022-08-20T04:37:36;13.23;;;11.32;;
2177;SDS011;1095;50.992;6.798;2022-08-20T04:40:04;14.80;;;11.70;;
2177;SDS011;1095;50.992;6.798;2022-08-20T04:42:50;15.98;;;12.63;;
2177;SDS011;1095;50.992;6.798;2022-08-20T04:45:18;18.27;;;13.65;;
2177;SDS011;1095;50.992;6.798;2022-08-20T04:47:46;17.67;;;14.88;;
2177;SDS011;1095;50.992;6.798;2022-08-20T04:50:13;25.02;;;19.45;;
2177;SDS011;1095;50.992;6.798;2022-08-20T04:52:40;27.17;;;22.83;;
2177;SDS011;1095;50.992;6.798;2022-08-20T04:55:07;32.00;;;24.73;;
2177;SDS011;1095;50.992;6.798;2022-08-20T04:57:35;36.40;;;25.50;;
2177;SDS011;1095;50.992;6.798;2022-08-20T05:00:03;39.83;;;29.55;;
2177;SDS011;1095;50.992;6.798;2022-08-20T05:02:33;44.13;;;30.45;;
2177;SDS011;1095;50.992;6.798;2022-08-20T05:05:00;44.53;;;31.20;;
2177;SDS011;1095;50.992;6.798;2022-08-20T05:07:27;43.63;;;32.72;;
2177;SDS011;1095;50.992;6.798;2022-08-20T05:09:53;43.17;;;31.83;;
2177;SDS011;1095;50.992;6.798;2022-08-20T05:12:20;46.90;;;31.73;;
2177;SDS011;1095;50.992;6.798;2022-08-20T05:14:47;44.15;;;31.27;;
2177;SDS011;1095;50.992;6.798;2022-08-20T05:17:15;41.67;;;30.30;;
2177;SDS011;1095;50.992;6.798;2022-08-20T05:19:43;47.80;;;31.65;;
2177;SDS011;1095;50.992;6.798;2022-08-20T05:22:10;43.30;;;30.55;;
2177;SDS011;1095;50.992;6.798;2022-08-20T05:24:37;47.40;;;33.75;;
2177;SDS011;1095;50.992;6.798;2022-08-20T05:27:03;48.90;;;34.67;;
2177;SDS011;1095;50.992;6.798;2022-08-20T05:29:30;48.90;;;33.95;;
2177;SDS011;1095;50.992;6.798;2022-08-20T05:31:57;47.95;;;34.80;;
2177;SDS011;1095;50.992;6.798;2022-08-20T05:34:23;47.88;;;33.65;;
2177;SDS011;1095;50.992;6.798;2022-08-20T05:36:51;45.38;;;33.17;;
2177;SDS011;1095;50.992;6.798;2022-08-20T05:39:19;40.75;;;30.60;;
2177;SDS011;1095;50.992;6.798;2022-08-20T05:41:47;42.35;;;31.35;;
2177;SDS011;1095;50.992;6.798;2022-08-20T05:44:14;44.63;;;31.90;;
2177;SDS011;1095;50.992;6.798;2022-08-20T05:46:42;45.97;;;32.60;;
2177;SDS011;1095;50.992;6.798;2022-08-20T05:49:11;42.85;;;31.95;;
2177;SDS011;1095;50.992;6.798;2022-08-20T05:51:39;43.72;;;31.75;;
2177;SDS011;1095;50.992;6.798;2022-08-20T05:54:07;39.80;;;30.40;;
2177;SDS011;1095;50.992;6.798;2022-08-20T05:56:34;43.60;;;30.48;;
2177;SDS011;1095;50.992;6.798;2022-08-20T05:59:02;37.33;;;29.50;;
2177;SDS011;1095;50.992;6.798;2022-08-20T06:01:31;36.70;;;28.95;;
2177;SDS011;1095;50.992;6.798;2022-08-20T06:04:00;33.88;;;27.00;;
2177;SDS011;1095;50.992;6.798;2022-08-20T06:06:44;29.17;;;25.48;;
2177;SDS011;1095;50.992;6.798;2022-08-20T06:09:12;33.25;;;25.42;;
2177;SDS011;1095;50.992;6.798;2022-08-20T06:11:39;33.70;;;25.52;;
2177;SDS011;1095;50.992;6.798;2022-08-20T06:14:05;32.78;;;26.00;;
2177;SDS011;1095;50.992;6.798;2022-08-20T06:16:32;30.98;;;24.98;;
2177;SDS011;1095;50.992;6.798;2022-08-20T06:18:59;34.67;;;26.13;;
2177;SDS011;1095;50.992;6.798;2022-08-20T06:21:25;34.05;;;26.52;;
2177;SDS011;1095;50.992;6.798;2022-08-20T06:23:52;38.55;;;27.75;;
2177;SDS011;1095;50.992;6.798;2022-08-20T06:26:20;36.95;;;27.02;;
2177;SDS011;1095;50.992;6.798;2022-08-20T06:28:47;28.30;;;25.20;;
2177;SDS011;1095;50.992;6.798;2022-08-20T06:31:14;30.70;;;25.33;;
2177;SDS011;1095;50.992;6.798;2022-08-20T06:33:41;32.97;;;25.65;;
2177;SDS011;1095;50.992;6.798;2022-08-20T06:36:08;33.08;;;25.77;;
2177;SDS011;1095;50.992;6.798;2022-08-20T06:38:34;36.05;;;25.25;;
2177;SDS011;1095;50.992;6.798;2022-08-20T06:41:01;29.85;;;24.55;;
2177;SDS011;1095;50.992;6.798;2022-08-20T06:43:29;31.75;;;24.77;;
2177;SDS011;1095;50.992;6.798;2022-08-20T06:45:58;28.73;;;23.35;;
2177;SDS011;1095;50.992;6.798;2022-08-20T06:48:26;26.55;;;22.98;;
2177;SDS011;1095;50.992;6.798;2022-08-20T06:50:53;29.08;;;23.27;;
2177;SDS011;1095;50.992;6.798;2022-08-20T06:53:20;25.88;;;20.92;;
2177;SDS011;1095;50.992;6.798;2022-08-20T06:55:47;25.92;;;21.80;;
2177;SDS011;1095;50.992;6.798;2022-08-20T06:58:16;26.08;;;20.15;;
2177;SDS011;1095;50.992;6.798;2022-08-20T07:00:46;27.63;;;21.42;;
2177;SDS011;1095;50.992;6.798;2022-08-20T07:03:14;24.38;;;20.25;;
2177;SDS011;1095;50.992;6.798;2022-08-20T07:05:42;26.95;;;19.95;;
2177;SDS011;1095;50.992;6.798;2022-08-20T07:08:10;25.65;;;19.80;;
2177;SDS011;1095;50.992;6.798;2022-08-20T07:10:39;27.75;;;19.95;;
2177;SDS011;1095;50.992;6.798;2022-08-20T07:13:07;26.65;;;20.42;;
2177;SDS011;1095;50.992;6.798;2022-08-20T07:15:35;23.13;;;20.60;;
2177;SDS011;1095;50.992;6.798;2022-08-20T07:18:03;28.25;;;19.30;;
2177;SDS011;1095;50.992;6.798;2022-08-20T07:20:32;23.95;;;18.48;;
2177;SDS011;1095;50.992;6.798;2022-08-20T07:23:01;21.33;;;16.77;;
2177;SDS011;1095;50.992;6.798;2022-08-20T07:25:30;20.40;;;17.10;;
2177;SDS011;1095;50.992;6.798;2022-08-20T07:27:59;20.85;;;17.00;;
2177;SDS011;1095;50.992;6.798;2022-08-20T07:30:26;21.60;;;15.75;;
2177;SDS011;1095;50.992;6.798;2022-08-20T07:33:16;16.75;;;14.80;;
2177;SDS011;1095;50.992;6.798;2022-08-20T07:35:42;17.63;;;15.13;;
2177;SDS011;1095;50.992;6.798;2022-08-20T07:38:13;17.45;;;14.27;;
2177;SDS011;1095;50.992;6.798;2022-08-20T07:40:48;16.38;;;13.73;;
2177;SDS011;1095;50.992;6.798;2022-08-20T07:43:15;17.65;;;13.52;;
2177;SDS011;1095;50.992;6.798;2022-08-20T07:45:42;15.68;;;12.98;;
2177;SDS011;1095;50.992;6.798;2022-08-20T07:48:10;13.43;;;11.90;;
2177;SDS011;1095;50.992;6.798;2022-08-20T07:50:40;16.27;;;13.48;;
2177;SDS011;1095;50.992;6.798;2022-08-20T07:53:07;13.57;;;12.18;;
2177;SDS011;1095;50.992;6.798;2022-08-20T07:55:36;18.23;;;14.57;;
2177;SDS011;1095;50.992;6.798;2022-08-20T07:58:06;19.77;;;16.52;;
2177;SDS011;1095;50.992;6.798;2022-08-20T08:00:35;20.15;;;15.32;;
2177;SDS011;1095;50.992;6.798;2022-08-20T08:03:02;21.55;;;15.55;;
2177;SDS011;1095;50.992;6.798;2022-08-20T08:05:31;17.75;;;15.00;;
2177;SDS011;1095;50.992;6.798;2022-08-20T08:08:03;19.52;;;16.10;;
2177;SDS011;1095;50.992;6.798;2022-08-20T08:10:32;22.98;;;17.20;;
2177;SDS011;1095;50.992;6.798;2022-08-20T08:12:59;21.50;;;17.50;;
2177;SDS011;1095;50.992;6.798;2022-08-20T08:15:31;18.48;;;15.75;;
2177;SDS011;1095;50.992;6.798;2022-08-20T08:18:02;22.08;;;15.98;;
2177;SDS011;1095;50.992;6.798;2022-08-20T08:20:32;23.70;;;17.58;;
2177;SDS011;1095;50.992;6.798;2022-08-20T08:23:03;22.52;;;17.38;;
2177;SDS011;1095;50.992;6.798;2022-08-20T08:25:29;25.02;;;17.45;;
2177;SDS011;1095;50.992;6.798;2022-08-20T08:27:57;26.33;;;18.40;;
2177;SDS011;1095;50.992;6.798;2022-08-20T08:30:25;22.20;;;18.23;;
2177;SDS011;1095;50.992;6.798;2022-08-20T08:32:52;24.90;;;17.00;;
2177;SDS011;1095;50.992;6.798;2022-08-20T08:35:37;28.27;;;17.48;;
2177;SDS011;1095;50.992;6.798;2022-08-20T08:38:05;27.10;;;16.95;;
2177;SDS011;1095;50.992;6.798;2022-08-20T08:40:32;23.92;;;17.02;;
2177;SDS011;1095;50.992;6.798;2022-08-20T08:42:59;23.50;;;17.55;;
2177;SDS011;1095;50.992;6.798;2022-08-20T08:45:30;27.45;;;17.52;;
2177;SDS011;1095;50.992;6.798;2022-08-20T08:48:01;25.92;;;17.30;;
2177;SDS011;1095;50.992;6.798;2022-08-20T08:50:30;23.67;;;17.20;;
2177;SDS011;1095;50.992;6.798;2022-08-20T08:55:31;30.60;;;20.95;;
2177;SDS011;1095;50.992;6.798;2022-08-20T08:57:58;27.30;;;20.48;;
2177;SDS011;1095;50.992;6.798;2022-08-20T09:00:26;31.23;;;18.77;;
2177;SDS011;1095;50.992;6.798;2022-08-20T09:02:55;27.73;;;18.02;;
2177;SDS011;1095;50.992;6.798;2022-08-20T09:05:26;21.17;;;16.42;;
2177;SDS011;1095;50.992;6.798;2022-08-20T09:07:57;21.58;;;16.42;;
2177;SDS011;1095;50.992;6.798;2022-08-20T09:10:26;24.88;;;16.27;;
2177;SDS011;1095;50.992;6.798;2022-08-20T09:12:54;20.65;;;15.77;;
2177;SDS011;1095;50.992;6.798;2022-08-20T09:15:21;27.95;;;16.63;;
2177;SDS011;1095;50.992;6.798;2022-08-20T09:17:48;27.33;;;17.67;;
2177;SDS011;1095;50.992;6.798;2022-08-20T09:20:14;33.47;;;19.48;;
2177;SDS011;1095;50.992;6.798;2022-08-20T09:22:42;30.55;;;18.25;;
2177;SDS011;1095;50.992;6.798;2022-08-20T09:25:09;23.58;;;16.15;;
2177;SDS011;1095;50.992;6.798;2022-08-20T09:27:35;25.67;;;16.65;;
2177;SDS011;1095;50.992;6.798;2022-08-20T09:30:04;24.02;;;16.63;;
2177;SDS011;1095;50.992;6.798;2022-08-20T09:32:31;24.88;;;15.82;;
2177;SDS011;1095;50.992;6.798;2022-08-20T09:34:58;24.63;;;15.75;;
2177;SDS011;1095;50.992;6.798;2022-08-20T09:37:25;25.15;;;16.58;;
2177;SDS011;1095;50.992;6.798;2022-08-20T09:39:53;23.02;;;17.58;;
2177;SDS011;1095;50.992;6.798;2022-08-20T09:42:20;30.42;;;19.05;;
2177;SDS011;1095;50.992;6.798;2022-08-20T09:44:48;24.38;;;16.58;;
2177;SDS011;1095;50.992;6.798;2022-08-20T09:47:16;25.17;;;16.30;;
2177;SDS011;1095;50.992;6.798;2022-08-20T09:49:46;23.02;;;13.65;;
2177;SDS011;1095;50.992;6.798;2022-08-20T09:52:16;20.42;;;15.05;;
2177;SDS011;1095;50.992;6.798;2022-08-20T09:54:45;23.60;;;16.35;;
2177;SDS011;1095;50.992;6.798;2022-08-20T09:57:12;25.98;;;15.95;;
2177;SDS011;1095;50.992;6.798;2022-08-20T09:59:40;25.67;;;16.98;;
2177;SDS011;1095;50.992;6.798;2022-08-20T10:02:07;23.35;;;15.88;;
2177;SDS011;1095;50.992;6.798;2022-08-20T10:04:35;22.92;;;14.40;;
2177;SDS011;1095;50.992;6.798;2022-08-20T10:07:05;28.20;;;14.95;;
2177;SDS011;1095;50.992;6.798;2022-08-20T10:09:32;23.27;;;13.73;;
2177;SDS011;1095;50.992;6.798;2022-08-20T10:11:59;24.20;;;13.85;;
2177;SDS011;1095;50.992;6.798;2022-08-20T10:14:26;20.67;;;13.07;;
2177;SDS011;1095;50.992;6.798;2022-08-20T10:16:53;21.40;;;14.35;;
2177;SDS011;1095;50.992;6.798;2022-08-20T10:19:21;19.88;;;15.07;;
2177;SDS011;1095;50.992;6.798;2022-08-20T10:21:50;22.88;;;13.20;;
2177;SDS011;1095;50.992;6.798;2022-08-20T10:24:16;22.20;;;14.35;;
2177;SDS011;1095;50.992;6.798;2022-08-20T10:26:46;20.10;;;13.20;;
2177;SDS011;1095;50.992;6.798;2022-08-20T10:29:12;22.92;;;13.88;;
2177;SDS011;1095;50.992;6.798;2022-08-20T10:31:40;23.55;;;13.77;;
2177;SDS011;1095;50.992;6.798;2022-08-20T10:34:07;22.67;;;14.32;;
2177;SDS011;1095;50.992;6.798;2022-08-20T10:36:34;22.80;;;12.95;;
2177;SDS011;1095;50.992;6.798;2022-08-20T10:39:02;24.35;;;13.35;;
2177;SDS011;1095;50.992;6.798;2022-08-20T10:41:30;17.05;;;12.02;;
2177;SDS011;1095;50.992;6.798;2022-08-20T10:43:57;25.83;;;15.10;;
2177;SDS011;1095;50.992;6.798;2022-08-20T10:46:25;22.08;;;13.00;;
2177;SDS011;1095;50.992;6.798;2022-08-20T10:48:54;23.27;;;14.23;;
2177;SDS011;1095;50.992;6.798;2022-08-20T10:51:20;23.58;;;12.75;;
2177;SDS011;1095;50.992;6.798;2022-08-20T10:53:47;25.45;;;14.05;;
2177;SDS011;1095;50.992;6.798;2022-08-20T10:56:15;21.45;;;13.82;;
2177;SDS011;1095;50.992;6.798;2022-08-20T10:58:42;21.58;;;13.30;;
2177;SDS011;1095;50.992;6.798;2022-08-20T11:01:08;23.08;;;13.75;;
2177;SDS011;1095;50.992;6.798;2022-08-20T11:03:44;17.80;;;13.68;;
2177;SDS011;1095;50.992;6.798;2022-08-20T11:06:20;21.25;;;12.55;;
2177;SDS011;1095;50.992;6.798;2022-08-20T11:08:55;21.30;;;11.82;;
2177;SDS011;1095;50.992;6.798;2022-08-20T11:11:38;20.60;;;10.93;;
2177;SDS011;1095;50.992;6.798;2022-08-20T11:17:49;22.23;;;12.48;;
2177;SDS011;1095;50.992;6.798;2022-08-20T11:20:57;20.48;;;13.02;;
2177;SDS011;1095;50.992;6.798;2022-08-20T11:23:35;25.77;;;13.88;;
2177;SDS011;1095;50.992;6.798;2022-08-20T11:26:06;23.73;;;14.90;;
2177;SDS011;1095;50.992;6.798;2022-08-20T11:28:45;20.15;;;14.63;;
2177;SDS011;1095;50.992;6.798;2022-08-20T11:31:18;21.58;;;14.38;;
2177;SDS011;1095;50.992;6.798;2022-08-20T11:33:59;27.30;;;14.75;;
2177;SDS011;1095;50.992;6.798;2022-08-20T11:36:39;19.80;;;13.77;;
2177;SDS011;1095;50.992;6.798;2022-08-20T11:39:11;22.63;;;13.32;;
2177;SDS011;1095;50.992;6.798;2022-08-20T11:41:46;18.92;;;13.82;;
2177;SDS011;1095;50.992;6.798;2022-08-20T11:44:44;19.42;;;13.43;;
2177;SDS011;1095;50.992;6.798;2022-08-20T11:47:22;17.02;;;13.18;;
2177;SDS011;1095;50.992;6.798;2022-08-20T11:50:04;19.02;;;13.85;;
2177;SDS011;1095;50.992;6.798;2022-08-20T11:52:40;20.90;;;15.00;;
2177;SDS011;1095;50.992;6.798;2022-08-20T11:55:08;20.77;;;13.25;;
2177;SDS011;1095;50.992;6.798;2022-08-20T11:57:46;18.60;;;12.77;;
2177;SDS011;1095;50.992;6.798;2022-08-20T12:00:19;17.58;;;13.13;;
2177;SDS011;1095;50.992;6.798;2022-08-20T12:02:50;18.05;;;12.20;;
2177;SDS011;1095;50.992;6.798;2022-08-20T12:05:16;22.48;;;14.85;;
2177;SDS011;1095;50.992;6.798;2022-08-20T12:07:44;22.08;;;15.57;;
2177;SDS011;1095;50.992;6.798;2022-08-20T12:10:12;24.02;;;14.85;;
2177;SDS011;1095;50.992;6.798;2022-08-20T12:12:39;21.23;;;14.45;;
2177;SDS011;1095;50.992;6.798;2022-08-20T12:15:09;20.02;;;14.50;;
2177;SDS011;1095;50.992;6.798;2022-08-20T12:17:37;26.08;;;17.80;;
2177;SDS011;1095;50.992;6.798;2022-08-20T12:20:05;25.13;;;17.73;;
2177;SDS011;1095;50.992;6.798;2022-08-20T12:22:34;22.20;;;14.80;;
2177;SDS011;1095;50.992;6.798;2022-08-20T12:25:01;24.73;;;14.80;;
2177;SDS011;1095;50.992;6.798;2022-08-20T12:27:29;22.75;;;13.23;;
2177;SDS011;1095;50.992;6.798;2022-08-20T12:30:05;23.20;;;16.65;;
2177;SDS011;1095;50.992;6.798;2022-08-20T12:32:34;20.55;;;14.50;;
2177;SDS011;1095;50.992;6.798;2022-08-20T12:35:02;21.50;;;14.20;;
2177;SDS011;1095;50.992;6.798;2022-08-20T12:37:30;25.20;;;16.13;;
2177;SDS011;1095;50.992;6.798;2022-08-20T12:39:58;20.77;;;13.32;;
2177;SDS011;1095;50.992;6.798;2022-08-20T12:42:26;22.58;;;13.75;;
2177;SDS011;1095;50.992;6.798;2022-08-20T12:44:54;24.92;;;13.48;;
2177;SDS011;1095;50.992;6.798;2022-08-20T12:47:22;22.92;;;14.38;;
2177;SDS011;1095;50.992;6.798;2022-08-20T12:49:51;23.90;;;14.48;;
2177;SDS011;1095;50.992;6.798;2022-08-20T12:52:21;23.83;;;13.60;;
2177;SDS011;1095;50.992;6.798;2022-08-20T12:54:48;18.70;;;10.32;;
2177;SDS011;1095;50.992;6.798;2022-08-20T12:57:21;17.65;;;10.05;;
2177;SDS011;1095;50.992;6.798;2022-08-20T12:59:49;16.75;;;8.82;;
2177;SDS011;1095;50.992;6.798;2022-08-20T13:02:16;19.63;;;9.98;;
2177;SDS011;1095;50.992;6.798;2022-08-20T13:04:42;20.88;;;10.80;;
2177;SDS011;1095;50.992;6.798;2022-08-20T13:07:10;17.33;;;9.55;;
2177;SDS011;1095;50.992;6.798;2022-08-20T13:09:39;18.75;;;9.82;;
2177;SDS011;1095;50.992;6.798;2022-08-20T13:12:08;15.25;;;8.43;;
2177;SDS011;1095;50.992;6.798;2022-08-20T13:14:36;18.35;;;8.13;;
2177;SDS011;1095;50.992;6.798;2022-08-20T13:17:06;17.67;;;8.23;;
2177;SDS011;1095;50.992;6.798;2022-08-20T13:19:34;14.57;;;8.30;;
2177;SDS011;1095;50.992;6.798;2022-08-20T13:22:02;16.15;;;7.68;;
2177;SDS011;1095;50.992;6.798;2022-08-20T13:24:29;15.20;;;7.55;;
2177;SDS011;1095;50.992;6.798;2022-08-20T13:27:03;16.00;;;7.55;;
2177;SDS011;1095;50.992;6.798;2022-08-20T13:29:31;13.40;;;7.43;;
2177;SDS011;1095;50.992;6.798;2022-08-20T13:31:59;18.60;;;7.57;;
2177;SDS011;1095;50.992;6.798;2022-08-20T13:34:25;15.23;;;8.02;;
2177;SDS011;1095;50.992;6.798;2022-08-20T13:36:52;16.40;;;8.48;;
2177;SDS011;1095;50.992;6.798;2022-08-20T13:39:19;12.68;;;6.90;;
2177;SDS011;1095;50.992;6.798;2022-08-20T13:41:47;16.25;;;6.97;;
2177;SDS011;1095;50.992;6.798;2022-08-20T13:44:15;15.43;;;7.60;;
2177;SDS011;1095;50.992;6.798;2022-08-20T13:46:42;15.82;;;7.35;;
2177;SDS011;1095;50.992;6.798;2022-08-20T13:49:09;20.13;;;7.13;;
2177;SDS011;1095;50.992;6.798;2022-08-20T13:51:35;13.98;;;5.85;;
2177;SDS011;1095;50.992;6.798;2022-08-20T13:54:02;13.68;;;6.13;;
2177;SDS011;1095;50.992;6.798;2022-08-20T13:56:29;11.43;;;5.43;;
2177;SDS011;1095;50.992;6.798;2022-08-20T13:58:55;10.93;;;5.03;;
2177;SDS011;1095;50.992;6.798;2022-08-20T14:01:24;9.52;;;5.18;;
2177;SDS011;1095;50.992;6.798;2022-08-20T14:03:50;13.57;;;5.47;;
2177;SDS011;1095;50.992;6.798;2022-08-20T14:06:17;15.95;;;5.80;;
2177;SDS011;1095;50.992;6.798;2022-08-20T14:08:43;11.27;;;4.95;;
2177;SDS011;1095;50.992;6.798;2022-08-20T14:11:10;15.27;;;5.10;;
2177;SDS011;1095;50.992;6.798;2022-08-20T14:13:37;16.45;;;5.20;;
2177;SDS011;1095;50.992;6.798;2022-08-20T14:16:03;12.77;;;5.50;;
2177;SDS011;1095;50.992;6.798;2022-08-20T14:18:32;13.02;;;4.78;;
2177;SDS011;1095;50.992;6.798;2022-08-20T14:20:58;12.45;;;5.13;;
2177;SDS011;1095;50.992;6.798;2022-08-20T14:23:25;9.60;;;4.75;;
2177;SDS011;1095;50.992;6.798;2022-08-20T14:25:52;10.40;;;4.88;;
2177;SDS011;1095;50.992;6.798;2022-08-20T14:28:19;10.00;;;4.72;;
2177;SDS011;1095;50.992;6.798;2022-08-20T14:30:47;13.00;;;5.07;;
2177;SDS011;1095;50.992;6.798;2022-08-20T14:33:15;12.35;;;5.05;;
2177;SDS011;1095;50.992;6.798;2022-08-20T14:35:43;12.95;;;4.78;;
2177;SDS011;1095;50.992;6.798;2022-08-20T14:38:10;9.60;;;4.90;;
2177;SDS011;1095;50.992;6.798;2022-08-20T14:40:36;8.82;;;4.80;;
2177;SDS011;1095;50.992;6.798;2022-08-20T14:43:03;11.43;;;4.93;;
2177;SDS011;1095;50.992;6.798;2022-08-20T14:45:30;13.05;;;4.60;;
2177;SDS011;1095;50.992;6.798;2022-08-20T14:47:57;7.50;;;4.00;;
2177;SDS011;1095;50.992;6.798;2022-08-20T14:50:25;8.77;;;4.32;;
2177;SDS011;1095;50.992;6.798;2022-08-20T14:52:55;9.77;;;4.57;;
2177;SDS011;1095;50.992;6.798;2022-08-20T14:55:22;8.80;;;4.20;;
2177;SDS011;1095;50.992;6.798;2022-08-20T14:57:50;12.35;;;4.60;;
2177;SDS011;1095;50.992;6.798;2022-08-20T15:00:19;8.27;;;4.78;;
2177;SDS011;1095;50.992;6.798;2022-08-20T15:02:47;13.88;;;5.53;;
2177;SDS011;1095;50.992;6.798;2022-08-20T15:05:14;8.80;;;4.30;;
2177;SDS011;1095;50.992;6.798;2022-08-20T15:07:42;11.57;;;4.88;;
2177;SDS011;1095;50.992;6.798;2022-08-20T15:10:12;12.23;;;5.03;;